Date,TemperatureHighF,TemperatureAvgF,TemperatureLowF,DewpointHighF,DewpointAvgF,DewpointLowF,HumidityHigh,HumidityAvg,HumidityLow,PressureMaxIn,PressureMinIn,WindSpeedMaxMPH,WindSpeedAvgMPH,GustSpeedMaxMPH,PrecipitationSumIn
2013-5-1,74.0,62.0,49.0,48.8,37.0,28.7,77,43,24,30.44,30.31,12,4,18,0.00
2013-5-2,75.8,63.3,48.8,44.5,40.0,32.5,65,44,29,30.47,30.30,8,3,15,0.00
2013-5-3,71.7,63.1,55.0,47.5,42.4,32.5,68,48,36,30.38,30.25,12,4,20,0.00
2013-5-4,74.4,61.3,46.0,45.0,39.6,32.7,66,46,30,30.33,30.17,7,2,13,0.00
2013-5-5,74.0,63.2,51.3,46.8,39.6,26.7,71,45,24,30.26,30.10,8,2,13,0.00
2013-5-6,73.9,61.6,47.0,49.5,39.6,28.2,71,47,25,30.22,30.07,9,2,14,0.00
2013-5-7,75.7,65.5,52.5,55.5,50.3,45.9,89,61,36,30.16,30.02,9,1,15,0.00
2013-5-8,65.5,60.1,53.5,59.9,55.4,51.0,96,85,65,30.08,29.93,7,1,16,0.09
2013-5-9,70.2,57.6,51.1,58.1,53.4,49.7,96,87,57,29.99,29.92,7,2,12,0.01
2013-5-10,70.2,61.7,52.2,60.3,55.2,51.1,97,81,59,30.01,29.80,13,4,20,0.34
2013-5-11,62.1,58.2,52.0,59.8,55.0,49.5,98,89,73,29.80,29.71,11,4,19,0.09
2013-5-12,52.4,46.8,37.4,49.9,36.6,26.9,95,70,40,29.95,29.72,13,6,24,0.02
2013-5-13,47.6,40.6,35.5,33.2,30.4,28.6,86,67,50,30.18,29.95,9,5,22,0.00
2013-5-14,55.7,44.2,33.0,33.6,30.7,27.7,88,62,37,30.22,30.06,6,2,15,0.00
2013-5-15,78.4,56.7,41.2,59.5,44.7,29.9,88,65,45,30.06,29.62,17,6,28,0.04
2013-5-16,76.0,65.3,52.3,47.4,42.8,37.7,68,46,28,29.96,29.76,12,6,28,0.00
2013-5-17,63.5,53.9,43.6,44.5,41.0,34.8,83,63,36,30.27,29.96,6,2,13,0.00
2013-5-18,66.8,56.3,43.9,51.6,46.3,39.5,88,70,49,30.32,30.22,10,3,18,0.00
2013-5-19,64.1,58.7,54.9,58.7,55.4,51.1,95,89,82,30.25,30.12,12,8,22,0.00
2013-5-20,82.7,70.2,58.6,65.4,61.7,56.9,95,76,53,30.13,29.90,7,2,15,0.00
2013-5-21,86.2,74.4,65.3,69.6,65.5,62.9,96,76,49,29.94,29.73,12,3,22,0.70
2013-5-22,86.6,72.6,64.0,70.3,65.2,60.3,98,80,48,29.85,29.70,13,3,28,0.19
2013-5-23,74.7,65.9,59.5,65.3,61.3,58.7,98,86,70,29.80,29.70,9,4,21,0.45
2013-5-24,59.1,41.8,38.2,58.5,40.8,37.4,98,96,90,30.18,29.75,11,8,22,0.16
2013-5-25,51.8,45.6,39.5,41.5,38.4,36.2,93,76,58,30.19,30.14,14,8,28,0.00
2013-5-26,58.1,49.5,40.2,41.1,37.9,33.4,98,67,41,30.24,30.09,11,5,27,0.00
2013-5-27,67.9,55.9,43.1,42.3,38.4,34.2,78,54,32,30.31,30.18,6,2,19,0.00
2013-5-28,56.8,53.9,49.7,55.9,48.3,38.1,99,82,62,30.22,30.08,11,4,22,0.62
2013-5-29,81.6,68.9,56.2,69.3,64.4,55.8,100,87,63,30.08,29.94,12,4,19,0.18
2013-5-30,85.8,75.9,66.2,69.3,66.2,63.5,93,74,51,30.13,30.05,6,2,13,0.00
2013-5-31,89.5,78.4,67.2,69.0,65.1,61.8,86,66,40,30.10,29.93,8,2,17,0.00